Time;durP1;ratioP1;P1;durP2;ratioP2;P2;SDS_P1;SDS_P2;PMS_P1;PMS_P2;Temp;Humidity;BMP_temperature;BMP_pressure;BME280_temperature;BME280_humidity;BME280_pressure;Samples;Min_cycle;Max_cycle;Signal;HPM_P1;HPM_P2
2022/05/14 00:02:05;;;;;;;0.60;0.10;;;17.70;99.90;;;;;;5041203;28;20458;-77
2022/05/14 00:04:34;;;;;;;0.60;0.10;;;17.70;99.90;;;;;;5039592;28;20514;-77
2022/05/14 00:07:03;;;;;;;0.60;0.10;;;17.70;99.90;;;;;;5038861;28;20471;-77
2022/05/14 00:09:30;;;;;;;0.60;0.20;;;17.70;99.90;;;;;;5038391;28;20483;-79
2022/05/14 00:14:44;;;;;;;0.60;0.10;;;17.60;99.90;;;;;;5038467;28;20529;-77
2022/05/14 00:17:12;;;;;;;1.30;1.20;;;17.60;99.90;;;;;;5037822;28;20530;-77
2022/05/14 00:19:41;;;;;;;0.60;0.10;;;17.50;99.90;;;;;;5038712;28;20448;-77
2022/05/14 00:22:09;;;;;;;0.60;0.10;;;17.50;99.90;;;;;;5039043;28;20443;-78
2022/05/14 00:24:37;;;;;;;0.60;0.17;;;17.50;99.90;;;;;;5040933;28;20456;-77
2022/05/14 00:27:05;;;;;;;0.60;0.10;;;17.50;99.90;;;;;;5044721;28;20466;-78
2022/05/14 00:29:33;;;;;;;0.60;0.10;;;17.50;99.90;;;;;;5038931;28;20454;-76
2022/05/14 00:32:00;;;;;;;0.60;0.30;;;17.50;99.90;;;;;;5037413;28;20496;-76
2022/05/14 00:34:28;;;;;;;0.60;0.20;;;17.40;99.90;;;;;;5037644;28;20977;-79
2022/05/14 00:37:00;;;;;;;0.60;0.20;;;17.20;99.90;;;;;;5038979;28;20463;-77
2022/05/14 00:39:28;;;;;;;0.60;0.10;;;17.20;99.90;;;;;;5036695;28;20438;-76
2022/05/14 00:41:56;;;;;;;0.60;0.10;;;17.00;99.90;;;;;;5036222;28;20459;-77
2022/05/14 00:44:23;;;;;;;0.60;0.10;;;17.00;99.90;;;;;;5037012;28;20789;-78
2022/05/14 00:46:58;;;;;;;0.60;0.10;;;16.90;99.90;;;;;;5036261;28;20465;-76
2022/05/14 00:49:30;;;;;;;0.60;0.10;;;16.90;99.90;;;;;;5037118;28;20931;-77
2022/05/14 00:52:01;;;;;;;0.60;0.20;;;16.90;99.90;;;;;;5038416;28;20437;-76
2022/05/14 00:54:35;;;;;;;0.70;0.50;;;16.90;99.90;;;;;;5036302;28;20516;-77
2022/05/14 00:57:07;;;;;;;0.60;0.10;;;16.90;99.90;;;;;;5034726;28;20708;-76
2022/05/14 00:59:37;;;;;;;0.60;0.10;;;16.90;99.90;;;;;;5036943;28;20880;-76
2022/05/14 01:02:06;;;;;;;0.60;0.10;;;16.90;99.90;;;;;;5036065;28;20550;-79
2022/05/14 01:04:34;;;;;;;0.60;0.10;;;16.90;99.90;;;;;;5035949;28;20538;-77
2022/05/14 01:07:12;;;;;;;0.60;0.10;;;16.80;99.90;;;;;;5036343;28;20467;-77
2022/05/14 01:09:49;;;;;;;0.60;0.10;;;16.80;99.90;;;;;;5035746;28;20528;-77
2022/05/14 01:12:19;;;;;;;0.60;0.10;;;16.80;99.90;;;;;;5036599;28;20453;-77
2022/05/14 01:14:47;;;;;;;0.60;0.10;;;16.80;99.90;;;;;;5034836;28;20462;-77
2022/05/14 01:17:15;;;;;;;0.60;0.10;;;16.80;99.90;;;;;;5033604;28;20465;-77
2022/05/14 01:19:43;;;;;;;0.60;0.10;;;16.80;99.90;;;;;;5035432;28;20439;-78
2022/05/14 01:22:24;;;;;;;0.60;0.10;;;16.80;99.90;;;;;;5041332;28;20450;-78
2022/05/14 01:27:47;;;;;;;0.60;0.20;;;16.80;99.90;;;;;;5036181;28;20946;-77
2022/05/14 01:30:16;;;;;;;0.60;0.10;;;16.80;99.90;;;;;;5036550;28;20486;-77
2022/05/14 01:32:47;;;;;;;0.60;0.20;;;16.70;99.90;;;;;;5035083;28;20445;-77
2022/05/14 01:35:16;;;;;;;0.60;0.10;;;16.70;99.90;;;;;;5036341;28;20479;-76
2022/05/14 01:37:44;;;;;;;0.60;0.20;;;16.70;99.90;;;;;;5034343;28;20468;-77
2022/05/14 01:40:13;;;;;;;0.60;0.10;;;16.60;99.90;;;;;;5037039;28;20569;-76
2022/05/14 01:42:41;;;;;;;0.60;0.10;;;16.60;99.90;;;;;;5037375;28;20447;-76
2022/05/14 01:45:11;;;;;;;0.60;0.27;;;16.60;99.90;;;;;;5037366;28;20492;-77
2022/05/14 01:47:40;;;;;;;0.60;0.10;;;16.60;99.90;;;;;;5036131;28;20521;-78
2022/05/14 01:50:09;;;;;;;0.60;0.10;;;16.50;99.90;;;;;;5037552;28;20934;-77
2022/05/14 01:52:37;;;;;;;0.60;0.13;;;16.50;99.90;;;;;;5035205;28;20529;-76
2022/05/14 01:55:05;;;;;;;0.60;0.10;;;16.50;99.90;;;;;;5035197;28;20453;-76
2022/05/14 01:57:34;;;;;;;0.60;0.20;;;16.50;99.90;;;;;;5031489;28;20477;-77
2022/05/14 02:00:04;;;;;;;0.60;0.20;;;16.50;99.90;;;;;;5036019;28;20443;-77
2022/05/14 02:02:33;;;;;;;0.60;0.20;;;16.40;99.90;;;;;;5035190;28;20477;-77
2022/05/14 02:05:02;;;;;;;0.60;0.20;;;16.40;99.90;;;;;;5037277;28;20447;-77
2022/05/14 02:07:30;;;;;;;0.70;0.40;;;16.30;99.90;;;;;;5035461;28;20458;-76
2022/05/14 02:09:57;;;;;;;0.60;0.10;;;16.30;99.90;;;;;;5035012;28;21033;-77
2022/05/14 02:12:25;;;;;;;0.60;0.20;;;16.30;99.90;;;;;;5032918;28;20487;-76
2022/05/14 02:14:54;;;;;;;0.60;0.10;;;;;;;;;;5033196;28;20460;-77
2022/05/14 02:17:22;;;;;;;0.60;0.17;;;16.30;99.90;;;;;;5033589;28;20438;-76
2022/05/14 02:19:54;;;;;;;0.60;0.10;;;16.20;99.90;;;;;;5033691;28;20469;-76
2022/05/14 02:22:22;;;;;;;0.60;0.20;;;16.20;99.90;;;;;;5035704;28;20448;-77
2022/05/14 02:24:50;;;;;;;0.60;0.10;;;;;;;;;;5036007;28;20556;-77
2022/05/14 02:27:18;;;;;;;0.60;0.10;;;16.10;99.90;;;;;;5039031;28;20447;-76
2022/05/14 02:29:51;;;;;;;0.60;0.20;;;16.10;99.90;;;;;;5039658;28;20494;-77
2022/05/14 02:32:20;;;;;;;0.60;0.10;;;16.00;99.90;;;;;;5038747;28;20986;-77
2022/05/14 02:34:48;;;;;;;0.60;0.10;;;16.00;99.90;;;;;;5037379;28;20446;-77
2022/05/14 02:37:19;;;;;;;0.60;0.10;;;16.00;99.90;;;;;;5038188;28;20459;-76
2022/05/14 02:39:47;;;;;;;0.60;0.13;;;16.00;99.90;;;;;;5039987;28;20449;-76
2022/05/14 02:42:16;;;;;;;0.60;0.20;;;16.00;99.90;;;;;;5037235;28;20451;-76
2022/05/14 02:44:44;;;;;;;0.60;0.10;;;15.90;99.90;;;;;;5038534;28;20447;-76
2022/05/14 02:47:12;;;;;;;0.60;0.20;;;15.90;99.90;;;;;;5036019;28;20443;-76
2022/05/14 02:49:40;;;;;;;0.60;0.10;;;15.90;99.90;;;;;;5037032;28;20443;-77
2022/05/14 02:52:09;;;;;;;0.60;0.10;;;;;;;;;;5037951;28;20514;-77
2022/05/14 02:54:38;;;;;;;0.60;0.10;;;15.70;99.90;;;;;;5038515;28;20799;-77
2022/05/14 02:57:07;;;;;;;0.60;0.10;;;;;;;;;;5087004;23;20486;-76
2022/05/14 02:59:35;;;;;;;0.60;0.20;;;15.70;99.90;;;;;;5054276;28;20457;-75
2022/05/14 03:02:04;;;;;;;0.60;0.10;;;15.70;99.90;;;;;;5054231;28;20932;-75
2022/05/14 03:04:37;;;;;;;0.60;0.20;;;15.70;99.90;;;;;;5053822;28;20449;-76
2022/05/14 03:07:06;;;;;;;0.60;0.20;;;15.70;99.90;;;;;;5054134;28;20469;-76
2022/05/14 03:09:34;;;;;;;0.60;0.10;;;15.60;99.90;;;;;;5054249;28;20457;-76
2022/05/14 03:12:04;;;;;;;0.60;0.20;;;15.60;99.90;;;;;;5056359;28;20489;-78
2022/05/14 03:14:32;;;;;;;0.60;0.10;;;15.60;99.90;;;;;;5055852;28;21009;-75
2022/05/14 03:17:00;;;;;;;0.60;0.10;;;19.30;99.90;;;;;;5055062;28;20472;-77
2022/05/14 03:19:28;;;;;;;0.60;0.10;;;15.50;99.90;;;;;;5054229;28;20465;-76
2022/05/14 03:21:56;;;;;;;0.60;0.20;;;15.50;99.90;;;;;;5054182;28;20814;-76
2022/05/14 03:24:25;;;;;;;0.60;0.13;;;15.50;99.90;;;;;;5053988;28;20521;-77
2022/05/14 03:26:53;;;;;;;0.60;0.10;;;15.50;99.90;;;;;;5053773;28;20467;-76
2022/05/14 03:29:22;;;;;;;0.60;0.10;;;;;;;;;;5054339;28;20461;-76
2022/05/14 03:31:50;;;;;;;0.60;0.10;;;15.40;99.90;;;;;;5054644;28;20482;-76
2022/05/14 03:34:18;;;;;;;0.60;0.10;;;15.30;99.90;;;;;;5054330;28;20447;-77
2022/05/14 03:36:46;;;;;;;0.60;0.10;;;15.30;99.90;;;;;;5053495;28;20473;-76
2022/05/14 03:39:14;;;;;;;0.60;0.20;;;15.30;99.90;;;;;;5052042;28;20442;-76
2022/05/14 03:41:42;;;;;;;0.60;0.10;;;15.40;99.90;;;;;;5053523;28;20466;-76
2022/05/14 03:44:10;;;;;;;0.60;0.20;;;15.30;99.90;;;;;;5053823;28;20444;-76
2022/05/14 03:46:39;;;;;;;0.60;0.10;;;15.30;99.90;;;;;;5052996;28;20989;-76
2022/05/14 03:49:07;;;;;;;0.60;0.10;;;15.20;99.90;;;;;;5053294;28;20470;-76
2022/05/14 03:51:35;;;;;;;0.60;0.10;;;15.20;99.90;;;;;;5053341;28;20482;-76
2022/05/14 03:54:05;;;;;;;0.60;0.10;;;15.10;99.90;;;;;;5053188;28;20442;-76
2022/05/14 03:56:33;;;;;;;0.60;0.10;;;15.00;99.90;;;;;;5053626;28;20531;-77
2022/05/14 03:59:03;;;;;;;0.60;0.20;;;15.00;99.90;;;;;;5053296;28;20478;-76
2022/05/14 04:01:31;;;;;;;0.60;0.10;;;15.00;99.90;;;;;;5053634;28;20482;-76
2022/05/14 04:04:01;;;;;;;0.60;0.10;;;15.00;99.90;;;;;;5053501;28;20805;-76
2022/05/14 04:06:29;;;;;;;0.60;0.10;;;14.90;99.90;;;;;;5054026;28;20494;-75
2022/05/14 04:08:57;;;;;;;0.60;0.10;;;14.90;99.90;;;;;;5053980;28;20441;-76
2022/05/14 04:11:25;;;;;;;0.60;0.20;;;14.90;99.90;;;;;;5056789;28;20446;-75
2022/05/14 04:13:53;;;;;;;0.60;0.10;;;14.90;99.90;;;;;;5068769;28;20485;-75
2022/05/14 04:16:21;;;;;;;0.60;0.20;;;14.90;99.90;;;;;;5066378;28;20462;-76
2022/05/14 04:18:49;;;;;;;0.60;0.10;;;14.90;99.90;;;;;;5055327;28;20450;-76
2022/05/14 04:21:19;;;;;;;0.60;0.10;;;14.80;99.90;;;;;;5053808;28;21039;-76
2022/05/14 04:23:47;;;;;;;0.60;0.20;;;14.80;99.90;;;;;;5053220;28;20454;-76
2022/05/14 04:26:14;;;;;;;0.60;0.10;;;14.80;1.00;;;;;;5052245;28;20465;-76
2022/05/14 04:28:42;;;;;;;0.60;0.30;;;14.70;1.00;;;;;;5053079;28;20465;-76
2022/05/14 04:31:10;;;;;;;0.60;0.10;;;14.70;1.00;;;;;;5052957;28;20462;-76
2022/05/14 04:33:38;;;;;;;3.53;3.33;;;14.70;1.00;;;;;;5053191;28;20529;-76
2022/05/14 04:36:07;;;;;;;0.60;0.10;;;14.50;1.00;;;;;;5053316;28;20471;-76
2022/05/14 04:38:36;;;;;;;0.60;0.10;;;14.40;1.00;;;;;;5053034;28;20526;-76
2022/05/14 04:41:04;;;;;;;0.60;0.10;;;14.40;1.00;;;;;;5053229;28;21044;-76
2022/05/14 04:43:33;;;;;;;0.60;0.10;;;;;;;;;;5052952;28;20442;-77
2022/05/14 04:46:01;;;;;;;0.60;0.10;;;14.40;1.00;;;;;;5053330;28;20570;-76
2022/05/14 04:48:29;;;;;;;0.60;0.10;;;14.50;1.00;;;;;;5052770;28;20446;-76
2022/05/14 04:50:57;;;;;;;0.60;0.10;;;14.50;1.00;;;;;;5053009;28;20446;-76
2022/05/14 04:53:24;;;;;;;0.60;0.10;;;14.50;1.00;;;;;;5052969;28;21026;-76
2022/05/14 04:55:54;;;;;;;0.60;0.10;;;14.50;1.00;;;;;;5052040;28;20479;-75
2022/05/14 04:58:21;;;;;;;0.60;0.10;;;14.50;1.00;;;;;;5052050;28;20971;-76
2022/05/14 05:00:49;;;;;;;0.60;0.10;;;14.60;1.00;;;;;;5053007;28;20453;-76
2022/05/14 05:03:16;;;;;;;0.60;0.10;;;14.60;1.00;;;;;;5052167;28;20489;-76
2022/05/14 05:05:45;;;;;;;0.60;0.10;;;14.70;1.00;;;;;;5051788;28;20932;-75
2022/05/14 05:08:13;;;;;;;0.60;0.10;;;14.70;1.00;;;;;;5050876;28;20530;-75
2022/05/14 05:10:41;;;;;;;0.60;0.10;;;14.80;1.00;;;;;;5051881;28;20458;-75
2022/05/14 05:13:12;;;;;;;0.60;0.10;;;14.90;1.00;;;;;;5051731;28;20486;-75
2022/05/14 05:15:40;;;;;;;0.60;0.10;;;15.00;1.00;;;;;;5052097;28;20562;-75
2022/05/14 05:18:09;;;;;;;0.60;0.10;;;15.00;1.00;;;;;;5051923;28;20526;-75
2022/05/14 05:20:39;;;;;;;0.60;0.10;;;15.10;1.00;;;;;;5053252;28;20470;-75
2022/05/14 05:23:08;;;;;;;0.60;0.10;;;15.20;1.00;;;;;;5052089;28;20443;-75
2022/05/14 05:25:36;;;;;;;0.60;0.10;;;15.20;1.00;;;;;;5052079;28;20588;-75
2022/05/14 05:28:04;;;;;;;0.60;0.10;;;15.20;1.00;;;;;;5051140;28;20453;-76
2022/05/14 05:30:33;;;;;;;0.60;0.10;;;15.30;1.00;;;;;;5051946;28;20438;-76
2022/05/14 05:33:02;;;;;;;0.60;0.20;;;15.30;1.00;;;;;;5051378;28;20582;-74
2022/05/14 05:35:30;;;;;;;0.60;0.10;;;15.40;1.00;;;;;;5051435;28;20470;-74
2022/05/14 05:37:58;;;;;;;0.60;0.10;;;15.50;99.90;;;;;;5051438;28;20453;-75
2022/05/14 05:40:26;;;;;;;0.60;0.20;;;15.60;99.90;;;;;;5051266;28;21083;-76
2022/05/14 05:42:54;;;;;;;0.60;0.10;;;15.70;99.90;;;;;;5052872;28;20533;-75
2022/05/14 05:45:22;;;;;;;0.60;0.10;;;15.80;99.90;;;;;;5051460;28;20880;-75
2022/05/14 05:47:52;;;;;;;0.60;0.20;;;15.90;99.90;;;;;;5051172;28;20998;-76
2022/05/14 05:50:20;;;;;;;0.60;0.20;;;15.90;99.90;;;;;;5051486;28;20935;-75
2022/05/14 05:52:50;;;;;;;0.60;0.10;;;15.90;99.90;;;;;;5052010;28;20993;-75
2022/05/14 05:58:03;;;;;;;0.60;0.20;;;16.00;99.90;;;;;;5051277;28;20449;-75
2022/05/14 06:00:32;;;;;;;0.60;0.20;;;16.00;99.90;;;;;;5051469;28;20643;-76
2022/05/14 06:03:02;;;;;;;0.60;0.20;;;16.10;99.90;;;;;;5055766;28;20861;-75
2022/05/14 06:05:33;;;;;;;0.60;0.10;;;16.10;99.90;;;;;;5055390;28;20468;-75
2022/05/14 06:08:01;;;;;;;0.60;0.10;;;16.10;99.90;;;;;;5054696;28;20538;-76
2022/05/14 06:10:29;;;;;;;0.60;0.10;;;16.20;99.90;;;;;;5055994;28;20446;-76
2022/05/14 06:12:58;;;;;;;0.60;0.13;;;16.20;99.90;;;;;;5054885;28;20569;-75
2022/05/14 06:15:26;;;;;;;0.60;0.10;;;16.20;99.90;;;;;;5053359;28;20472;-77
2022/05/14 06:17:54;;;;;;;0.60;0.10;;;16.30;99.90;;;;;;5055143;28;20450;-75
2022/05/14 06:20:23;;;;;;;0.60;0.20;;;;;;;;;;5055600;28;20454;-75
2022/05/14 06:22:51;;;;;;;0.60;0.10;;;16.30;99.90;;;;;;5055383;28;20457;-75
2022/05/14 06:25:19;;;;;;;0.60;0.20;;;16.30;99.90;;;;;;5054407;28;20447;-75
2022/05/14 06:27:47;;;;;;;0.60;0.20;;;16.40;99.90;;;;;;5054064;28;20526;-75
2022/05/14 06:30:16;;;;;;;0.60;0.20;;;16.50;99.90;;;;;;5054803;28;20442;-75
2022/05/14 06:32:44;;;;;;;0.60;0.20;;;16.50;99.90;;;;;;5054762;28;20456;-76
2022/05/14 06:35:12;;;;;;;0.60;0.20;;;16.60;99.90;;;;;;5054823;28;20457;-76
2022/05/14 06:37:41;;;;;;;0.60;0.10;;;16.70;99.90;;;;;;5054489;28;20999;-76
2022/05/14 06:40:11;;;;;;;0.60;0.10;;;16.80;99.90;;;;;;5056053;28;20438;-75
2022/05/14 06:42:39;;;;;;;0.60;0.10;;;16.80;99.90;;;;;;5055292;28;20936;-74
2022/05/14 06:45:08;;;;;;;0.60;0.10;;;17.00;99.90;;;;;;5054572;28;20443;-76
2022/05/14 06:47:36;;;;;;;0.60;0.10;;;17.00;99.90;;;;;;5054002;28;20446;-77
2022/05/14 06:50:05;;;;;;;0.60;0.10;;;17.10;99.90;;;;;;5056015;28;20533;-76
2022/05/14 06:52:34;;;;;;;1.43;1.33;;;17.20;99.90;;;;;;5057520;28;20443;-77
2022/05/14 06:55:06;;;;;;;0.60;0.20;;;17.30;99.90;;;;;;5063843;28;20471;-76
2022/05/14 06:57:34;;;;;;;0.60;0.10;;;17.30;99.90;;;;;;5059302;28;20463;-76
2022/05/14 07:00:03;;;;;;;0.60;0.20;;;17.30;99.90;;;;;;5056090;28;20554;-76
2022/05/14 07:02:31;;;;;;;0.60;0.20;;;17.30;99.90;;;;;;5056105;28;20450;-75
2022/05/14 07:07:45;;;;;;;0.60;0.10;;;17.40;99.90;;;;;;5054889;28;20474;-76
2022/05/14 07:10:15;;;;;;;0.60;0.10;;;17.50;99.90;;;;;;5055648;28;20446;-76
2022/05/14 07:12:43;;;;;;;0.60;0.20;;;17.60;99.90;;;;;;5054947;28;20474;-77
2022/05/14 07:15:12;;;;;;;0.60;0.10;;;17.70;99.90;;;;;;5054754;28;20482;-77
2022/05/14 07:17:41;;;;;;;0.60;0.10;;;17.70;99.90;;;;;;5054714;28;20438;-75
2022/05/14 07:20:10;;;;;;;0.60;0.20;;;17.70;99.90;;;;;;5055058;28;20447;-76
2022/05/14 07:22:38;;;;;;;0.60;0.10;;;17.80;99.90;;;;;;5054731;28;20456;-75
2022/05/14 07:25:08;;;;;;;0.93;0.87;;;17.80;99.90;;;;;;5054264;28;20853;-76
2022/05/14 07:27:41;;;;;;;0.60;0.10;;;17.80;99.90;;;;;;5053736;28;20456;-77
2022/05/14 07:30:10;;;;;;;0.60;0.20;;;17.80;99.90;;;;;;5054968;28;20448;-76
2022/05/14 07:32:38;;;;;;;0.60;0.10;;;17.80;99.90;;;;;;5055616;28;20446;-75
2022/05/14 07:35:07;;;;;;;0.60;0.20;;;18.00;99.90;;;;;;5054612;28;20487;-76
2022/05/14 07:37:40;;;;;;;0.60;0.10;;;18.00;99.90;;;;;;5054860;28;20441;-77
2022/05/14 07:40:11;;;;;;;0.60;0.10;;;18.00;99.90;;;;;;5054646;28;20451;-77
2022/05/14 07:42:44;;;;;;;0.60;0.20;;;18.00;99.90;;;;;;5054978;28;20443;-75
2022/05/14 07:45:18;;;;;;;0.60;0.10;;;18.10;99.90;;;;;;5054389;28;21134;-76
2022/05/14 07:47:46;;;;;;;0.60;0.13;;;18.10;99.90;;;;;;5055980;28;20527;-77
2022/05/14 07:50:16;;;;;;;0.60;0.10;;;18.30;99.90;;;;;;5054693;28;20468;-76
2022/05/14 07:52:44;;;;;;;0.60;0.20;;;18.30;99.90;;;;;;5054955;28;21009;-77
2022/05/14 07:55:12;;;;;;;0.60;0.10;;;18.30;99.90;;;;;;5054559;28;21018;-77
2022/05/14 07:57:42;;;;;;;0.70;0.20;;;18.40;99.90;;;;;;5054491;28;20862;-72
2022/05/14 08:00:11;;;;;;;1.03;0.93;;;18.40;99.90;;;;;;5054963;28;20440;-74
2022/05/14 08:02:42;;;;;;;0.60;0.10;;;18.60;99.90;;;;;;5055557;28;20451;-76
2022/05/14 08:05:11;;;;;;;0.70;0.47;;;19.10;99.90;;;;;;5057457;28;20474;-80
2022/05/14 08:07:39;;;;;;;0.70;0.20;;;19.10;99.90;;;;;;5054593;28;20952;-74
2022/05/14 08:10:11;;;;;;;0.70;0.10;;;19.30;99.90;;;;;;5053725;28;20448;-74
2022/05/14 08:12:42;;;;;;;0.60;0.10;;;19.40;99.90;;;;;;5051510;28;21125;-74
2022/05/14 08:15:14;;;;;;;0.70;0.10;;;19.60;99.90;;;;;;5051938;28;21032;-73
2022/05/14 08:17:44;;;;;;;2.53;0.40;;;19.60;99.90;;;;;;5054543;28;20444;-73
2022/05/14 08:20:13;;;;;;;0.67;0.27;;;19.70;99.90;;;;;;5053041;28;20447;-73
2022/05/14 08:25:28;;;;;;;0.60;0.10;;;19.70;99.90;;;;;;5055257;28;20537;-73
2022/05/14 08:27:56;;;;;;;0.70;0.10;;;19.60;99.90;;;;;;5049762;28;20467;-72
2022/05/14 08:30:28;;;;;;;3.40;2.43;;;19.50;99.90;;;;;;5052706;28;20956;-72
2022/05/14 08:32:56;;;;;;;0.70;0.10;;;19.50;99.90;;;;;;5048140;28;21044;-72
2022/05/14 08:35:25;;;;;;;0.60;0.10;;;19.50;99.90;;;;;;5049914;28;20488;-74
2022/05/14 08:37:54;;;;;;;0.60;0.10;;;19.50;99.90;;;;;;5036153;28;20460;-73
2022/05/14 08:40:26;;;;;;;0.60;0.10;;;19.70;99.90;;;;;;5046711;28;20454;-74
2022/05/14 08:42:59;;;;;;;0.70;0.10;;;19.70;99.90;;;;;;5044231;28;21000;-73
2022/05/14 08:45:33;;;;;;;0.60;0.10;;;19.90;99.90;;;;;;5051430;28;20850;-74
2022/05/14 08:48:06;;;;;;;0.70;0.20;;;19.90;99.90;;;;;;5051610;28;20447;-73
2022/05/14 08:50:38;;;;;;;0.70;0.40;;;20.00;99.90;;;;;;5052128;28;20446;-73
2022/05/14 08:53:10;;;;;;;0.60;0.10;;;20.00;99.90;;;;;;5052007;28;20946;-73
2022/05/14 08:55:44;;;;;;;0.70;0.10;;;20.10;99.90;;;;;;5051691;28;20527;-73
2022/05/14 08:58:18;;;;;;;0.70;0.20;;;20.20;99.90;;;;;;5066119;23;20544;-74
2022/05/14 09:00:48;;;;;;;0.70;0.30;;;20.30;99.90;;;;;;5078305;28;20435;-74
2022/05/14 09:03:16;;;;;;;0.70;0.10;;;20.40;99.90;;;;;;5073201;28;20567;-75
2022/05/14 09:05:44;;;;;;;0.70;0.10;;;20.40;99.90;;;;;;5067643;28;20448;-70
2022/05/14 09:08:15;;;;;;;0.80;0.63;;;20.50;99.90;;;;;;5059698;28;20500;-73
2022/05/14 09:10:59;;;;;;;0.70;0.10;;;20.50;99.90;;;;;;5058056;28;20462;-74
2022/05/14 09:13:28;;;;;;;0.70;0.20;;;20.50;99.90;;;;;;5064394;28;20549;-73
2022/05/14 09:16:02;;;;;;;0.70;0.20;;;20.50;99.90;;;;;;5053637;28;20491;-73
2022/05/14 09:18:33;;;;;;;0.70;0.10;;;20.50;99.90;;;;;;5058417;28;20478;-73
2022/05/14 09:21:03;;;;;;;0.70;0.10;;;20.50;99.90;;;;;;5063677;28;20537;-75
2022/05/14 09:23:40;;;;;;;0.70;0.20;;;20.40;99.90;;;;;;5064541;28;20551;-75
2022/05/14 09:26:11;;;;;;;0.70;0.10;;;20.50;99.90;;;;;;5060399;28;20450;-75
2022/05/14 09:28:44;;;;;;;0.70;0.20;;;20.60;99.90;;;;;;5054275;28;20479;-75
2022/05/14 09:31:24;;;;;;;0.60;0.10;;;20.60;99.90;;;;;;5042432;28;20459;-75
2022/05/14 09:34:01;;;;;;;0.70;0.10;;;20.60;99.90;;;;;;5050969;28;20505;-73
2022/05/14 09:36:41;;;;;;;0.70;0.20;;;20.80;99.90;;;;;;5050597;28;21030;-74
2022/05/14 09:39:13;;;;;;;1.93;1.13;;;20.70;99.90;;;;;;5052522;28;20578;-73
2022/05/14 09:41:44;;;;;;;0.63;0.20;;;20.60;99.90;;;;;;5054011;28;20448;-76
2022/05/14 09:44:21;;;;;;;0.67;0.20;;;20.60;99.90;;;;;;5053390;28;20464;-75
2022/05/14 09:46:52;;;;;;;0.70;0.10;;;20.70;99.90;;;;;;5061073;28;20937;-74
2022/05/14 09:49:23;;;;;;;0.60;0.20;;;20.80;99.90;;;;;;5053610;28;20464;-74
2022/05/14 09:51:56;;;;;;;0.70;0.10;;;20.70;99.90;;;;;;5054262;28;20938;-74
2022/05/14 09:54:30;;;;;;;0.67;0.10;;;20.90;99.90;;;;;;5052824;28;20961;-75
2022/05/14 09:57:34;;;;;;;0.70;0.20;;;20.90;99.90;;;;;;5054119;28;20519;-74
2022/05/14 10:00:38;;;;;;;0.90;0.30;;;20.90;99.90;;;;;;5114734;27;20623;-74
2022/05/14 10:03:29;;;;;;;0.70;0.20;;;21.00;99.90;;;;;;5112022;28;20438;-74
2022/05/14 10:06:04;;;;;;;0.70;0.13;;;21.00;99.90;;;;;;5110403;28;20445;-74
2022/05/14 10:08:51;;;;;;;0.70;0.23;;;21.20;99.90;;;;;;5105059;28;20461;-74
2022/05/14 10:11:24;;;;;;;0.70;0.20;;;21.20;99.90;;;;;;5085794;28;20449;-75
2022/05/14 10:14:00;;;;;;;0.70;0.10;;;21.30;99.90;;;;;;5096252;28;20439;-74
2022/05/14 10:16:34;;;;;;;0.70;0.20;;;21.30;99.90;;;;;;5095517;28;20453;-74
2022/05/14 10:19:15;;;;;;;0.70;0.20;;;21.50;99.90;;;;;;5094040;28;20717;-75
2022/05/14 10:21:50;;;;;;;0.70;0.20;;;21.40;99.90;;;;;;5088047;28;20474;-75
2022/05/14 10:27:32;;;;;;;0.80;0.50;;;21.50;99.90;;;;;;5087340;28;20532;-73
2022/05/14 10:30:14;;;;;;;0.80;0.30;;;21.50;99.90;;;;;;5091123;28;20456;-74
2022/05/14 10:32:45;;;;;;;0.90;0.40;;;21.40;99.90;;;;;;5088082;28;20448;-75
2022/05/14 10:35:19;;;;;;;0.90;0.50;;;21.40;99.90;;;;;;5088015;28;20457;-73
2022/05/14 10:37:50;;;;;;;0.70;0.10;;;21.40;99.90;;;;;;5080376;28;20459;-75
2022/05/14 10:40:27;;;;;;;0.70;0.20;;;21.40;99.90;;;;;;5087195;28;20483;-74
2022/05/14 10:43:09;;;;;;;0.70;0.20;;;21.70;99.90;;;;;;5089095;28;20449;-74
2022/05/14 10:45:41;;;;;;;0.70;0.20;;;21.70;99.90;;;;;;5091114;28;20505;-73
2022/05/14 10:48:21;;;;;;;1.03;0.53;;;21.70;99.90;;;;;;5090681;28;20462;-73
2022/05/14 10:50:50;;;;;;;1.57;0.33;;;21.60;99.90;;;;;;5089061;28;20434;-75
2022/05/14 10:53:18;;;;;;;0.70;0.10;;;21.60;99.90;;;;;;5088180;28;20529;-75
2022/05/14 10:56:01;;;;;;;0.70;0.20;;;21.60;99.90;;;;;;5087881;28;20452;-75
2022/05/14 10:58:39;;;;;;;0.70;0.10;;;21.80;99.90;;;;;;5087613;28;20479;-74
2022/05/14 11:01:09;;;;;;;0.70;0.17;;;22.00;99.90;;;;;;5087560;28;20174;-75
2022/05/14 11:03:41;;;;;;;0.68;0.15;;;22.10;99.90;;;;;;5087568;28;20471;-75
2022/05/14 11:06:13;;;;;;;1.67;0.70;;;22.30;99.90;;;;;;5087426;28;20254;-74
2022/05/14 11:08:44;;;;;;;0.70;0.20;;;21.70;99.90;;;;;;5087661;28;20479;-75
2022/05/14 11:11:17;;;;;;;0.70;0.20;;;21.70;99.90;;;;;;5078128;28;20205;-75
2022/05/14 11:13:59;;;;;;;4.70;1.00;;;21.80;99.90;;;;;;5074629;28;20553;-75
2022/05/14 11:16:41;;;;;;;0.80;0.20;;;21.80;99.90;;;;;;5073681;28;20461;-74
2022/05/14 11:19:11;;;;;;;0.70;0.20;;;21.80;99.90;;;;;;5074191;28;20568;-76
2022/05/14 11:21:42;;;;;;;0.70;0.10;;;22.00;99.90;;;;;;5073109;28;20299;-76
2022/05/14 11:24:13;;;;;;;0.70;0.10;;;22.00;99.90;;;;;;5065567;28;20974;-75
2022/05/14 11:26:50;;;;;;;0.70;0.20;;;22.20;99.90;;;;;;5072856;28;20446;-73
2022/05/14 11:29:21;;;;;;;0.70;0.10;;;22.40;99.90;;;;;;5069359;28;20479;-74
2022/05/14 11:32:02;;;;;;;0.70;0.30;;;22.50;99.90;;;;;;5071973;28;20449;-72
2022/05/14 11:34:32;;;;;;;0.70;0.10;;;22.50;99.90;;;;;;5068310;28;20463;-74
2022/05/14 11:37:04;;;;;;;0.70;0.30;;;22.50;99.90;;;;;;5064020;28;20433;-75
2022/05/14 11:39:36;;;;;;;0.70;0.10;;;22.60;99.90;;;;;;5072048;28;20502;-74
2022/05/14 11:42:27;;;;;;;0.70;0.10;;;22.80;99.90;;;;;;5074304;28;20465;-79
2022/05/14 11:45:04;;;;;;;0.70;0.10;;;23.10;99.90;;;;;;5072767;28;20467;-72
2022/05/14 11:47:56;;;;;;;0.70;0.20;;;23.10;99.90;;;;;;5052095;28;20483;-73
2022/05/14 11:50:32;;;;;;;0.90;0.30;;;23.20;99.90;;;;;;5063628;28;20457;-74
2022/05/14 11:53:13;;;;;;;0.70;0.10;;;23.20;99.90;;;;;;5072100;28;20443;-72
2022/05/14 11:55:48;;;;;;;0.90;0.40;;;22.90;99.90;;;;;;5072079;28;20456;-74
2022/05/14 11:58:21;;;;;;;0.70;0.10;;;23.00;99.90;;;;;;5071146;28;21017;-72
2022/05/14 12:00:52;;;;;;;0.70;0.10;;;23.00;99.90;;;;;;5069893;28;20903;-72
2022/05/14 12:03:24;;;;;;;0.70;0.20;;;23.00;99.90;;;;;;5071387;28;20881;-72
2022/05/14 12:05:57;;;;;;;0.70;0.10;;;22.50;99.90;;;;;;5070435;28;20452;-73
2022/05/14 12:08:50;;;;;;;2.00;1.33;;;23.40;99.90;;;;;;5070836;28;20475;-72
2022/05/14 12:11:28;;;;;;;0.70;0.30;;;23.30;99.90;;;;;;5072647;28;20441;-73
2022/05/14 12:14:07;;;;;;;0.70;0.10;;;23.50;99.90;;;;;;5071863;28;20459;-73
2022/05/14 12:16:40;;;;;;;0.70;0.23;;;23.50;99.90;;;;;;5072664;28;20911;-73
2022/05/14 12:19:15;;;;;;;0.90;0.20;;;23.70;99.90;;;;;;5072288;28;20999;-73
2022/05/14 12:21:51;;;;;;;0.70;0.10;;;23.50;99.90;;;;;;5072006;28;21007;-72
2022/05/14 12:24:21;;;;;;;0.70;0.20;;;23.30;99.90;;;;;;5072825;28;20456;-72
2022/05/14 12:26:49;;;;;;;0.70;0.10;;;;;;;;;;5071800;28;20456;-72
2022/05/14 12:29:21;;;;;;;0.70;0.20;;;23.40;99.90;;;;;;5070608;28;20842;-72
2022/05/14 12:34:44;;;;;;;0.70;0.20;;;23.60;99.90;;;;;;5074737;28;20457;-78
2022/05/14 12:37:26;;;;;;;0.70;0.10;;;23.80;99.90;;;;;;5083058;28;20513;-79
2022/05/14 12:39:56;;;;;;;0.70;0.17;;;23.80;99.90;;;;;;5089391;28;20515;-77
2022/05/14 12:42:33;;;;;;;0.70;0.20;;;23.90;99.90;;;;;;5085755;28;20464;-79
2022/05/14 12:45:01;;;;;;;0.70;0.10;;;24.10;99.90;;;;;;5089236;28;20444;-78
2022/05/14 12:47:31;;;;;;;1.07;0.50;;;24.10;99.90;;;;;;5083761;28;20464;-78
2022/05/14 12:50:01;;;;;;;0.70;0.20;;;23.80;99.90;;;;;;5085065;28;20848;-79
2022/05/14 12:52:34;;;;;;;0.80;0.57;;;23.80;99.90;;;;;;5083673;28;20441;-75
2022/05/14 12:55:06;;;;;;;0.70;0.20;;;24.00;99.90;;;;;;5070848;28;20453;-72
2022/05/14 12:57:37;;;;;;;0.70;0.20;;;24.00;99.90;;;;;;5081252;28;20211;-79
2022/05/14 13:00:07;;;;;;;0.70;0.20;;;24.20;99.90;;;;;;5081789;28;20546;-77
2022/05/14 13:02:37;;;;;;;0.70;0.20;;;24.50;99.90;;;;;;5077224;28;20457;-80
2022/05/14 13:05:09;;;;;;;0.70;0.20;;;24.60;99.90;;;;;;5074394;28;20450;-77
2022/05/14 13:07:47;;;;;;;0.70;0.20;;;24.70;99.90;;;;;;5076479;28;20524;-78
2022/05/14 13:10:19;;;;;;;1.08;0.50;;;24.70;99.90;;;;;;5085831;28;20448;-79
2022/05/14 13:12:50;;;;;;;0.80;0.30;;;24.60;99.90;;;;;;5082387;28;20214;-79
2022/05/14 13:15:19;;;;;;;1.00;0.90;;;24.40;99.90;;;;;;5081122;28;20223;-79
2022/05/14 13:17:47;;;;;;;0.70;0.20;;;24.40;99.90;;;;;;5084892;28;20946;-79
2022/05/14 13:20:22;;;;;;;0.70;0.10;;;24.50;99.90;;;;;;5087554;28;20477;-78
2022/05/14 13:23:03;;;;;;;2.87;0.27;;;24.50;99.90;;;;;;5086957;28;20457;-77
2022/05/14 13:25:34;;;;;;;1.40;0.87;;;24.40;99.90;;;;;;5084252;28;20460;-80
2022/05/14 13:28:13;;;;;;;0.80;0.50;;;24.00;99.90;;;;;;5082308;28;20446;-78
2022/05/14 13:30:41;;;;;;;0.70;0.20;;;24.00;99.90;;;;;;5085497;28;20474;-77